Tiempo atmosférico en la estación meteorológica de Herrera Del Duque, Badajoz (447 m.)



Fecha
DESCASC
Temp. máxima en grados centígrados (hora)
DESCASC
Temp. mínima en grados centígrados (hora)
DESCASC
Temp. media en grados centígrados
DESCASC
Racha de viento máxima en m/sg (hora)
DESCASC
Velocidad máxima media en intervalos de 10 minutos(hora)
DESCASC
Precipitaciones diarias en mm
DESCASC
Precipitaciones de 00:00 a 06:00 en mm
DESCASC
Precipitaciones de 06:00 a 12:00 en mm
DESCASC
Precipitaciones de 12:00 a 18:00 en mm
DESCASC
Precipitaciones de 18:00 a 24:00 en mm
DESCASC
22-08-2019 36.3 (17:20) 19.6 (07:20) 27.9 10.56 (02:30) 6.11 (01:50) 0 0 0 0 0
21-08-2019 35.9 (16:50) 20.3 (07:20) 28.1 10.28 (18:00) 6.39 (17:20) 0 0 0 0 0
20-08-2019 35.2 (17:40) 17.8 (08:40) 26.5 6.39 (19:50) 4.17 (20:00) 0 0 0 0 0
19-08-2019 33.3 (17:10) 20.1 (07:40) 26.7 9.72 (18:30) 6.39 (18:30) 0 0 0 0 0
18-08-2019 34.9 (16:50) 20.6 (00:00) 27.8 10.83 (16:20) 5.83 (17:00) 0 0 0 0 0
17-08-2019 38.8 (17:10) 20.2 (00:00) 29.5 8.61 (18:30) 5 (14:40) 0 0 0 0 0
16-08-2019 38 (18:00) 19.9 (00:00) 28.9 10.28 (15:40) 5 (15:40) 0 0 0 0 0
15-08-2019 38.4 (16:40) 17.6 (00:00) 28 7.22 (18:10) 4.17 (19:20) 0 0 0 0 0
14-08-2019 36.4 (17:50) 15.4 (00:00) 25.9 7.78 (16:40) 4.17 (16:40) 0 0 0 0 0
13-08-2019 34.5 (18:50) 15.7 (00:00) 25.1 7.78 (15:30) 3.61 (15:30) 0 0 0 0 0
12-08-2019 31.4 (17:50) 12.2 (00:00) 21.8 8.89 (12:20) 4.17 (15:50) 0 0 0 0 0
11-08-2019 29.8 (18:00) 17.4 (00:00) 23.6 10.28 (15:50) 6.11 (03:30) 0 0 0 0 0
10-08-2019 32.5 (19:20) 18.2 (00:00) 25.4 8.33 (14:50) 5.28 (18:10) 0 0 0 0 0
09-08-2019 32.7 (17:30) 20.8 (00:00) 26.8 10 (16:30) 5.83 (17:50) 0 0 0 0 0
08-08-2019 36 (18:10) 17.4 (00:00) 26.7 9.44 (17:10) 4.44 (15:30) 0 0 0 0 0
07-08-2019 29.6 (18:00) 20.3 (00:00) 24.9 6.94 (15:30) 5 (15:30) 0 0 0 0 0
06-08-2019 36.2 (17:30) 19 (00:00) 27.6 8.89 (16:20) 5.28 (16:10) 0 0 0 0 0
05-08-2019 37.1 (17:20) 18 (00:00) 27.5 8.61 (16:50) 5.28 (16:40) 0 0 0 0 0
04-08-2019 35.8 (18:40) 19.3 (00:00) 27.5 8.89 (16:20) 5 (17:20) 0 0 0 0 0
03-08-2019 37.2 (17:10) 17.4 (00:00) 27.3 9.72 (19:20) 5.56 (17:30) 0 0 0 0 0
02-08-2019 36.9 (17:20) 16.8 (00:00) 26.9 8.61 (15:10) 5 (15:10) 0 0 0 0 0
01-08-2019 35.3 (17:40) 22.1 (00:00) 28.7 10.28 (16:20) 5.28 (14:20) 0 0 0 0 0
31-07-2019 36.7 (17:50) 15.2 (00:00) 26 8.89 (16:30) 5 (16:30) 0 0 0 0 0
30-07-2019 34.2 (18:40) 15.6 (00:00) 24.9 7.78 (15:10) 3.61 (20:40) 0 0 0 0 0
29-07-2019 32.6 (17:40) 19.7 (00:00) 26.1 8.89 (17:40) 5.28 (20:10) 0 0 0 0 0
28-07-2019 32.8 (16:30) 16 (00:00) 24.4 6.94 (14:20) 3.89 (14:20) 0 0 0 0 0
27-07-2019 27 (19:00) 15.3 (00:00) 21.2 9.44 (12:50) 5.83 (12:50) 0 0 0 0 0
26-07-2019 30.6 (18:10) 19.6 (00:00) 25.1 10.56 (19:10) 6.11 (19:30) 0 0 0 0 0

Gráficas

Temp. máximas Temp. mínimas Temp. medias Precipitaciones Rachas de viento máximas Velocidades máximas media en intervalos de 10 minutos

Datos horarios

Fecha y hora oficial Temperatura (ºC) Velocidad del viento (km/h) Dirección del viento Racha (km/h) Dirección de racha Precipitación (mm) Presión (hPa) Tendencia (hPa) Humedad (%)
2019-08-24 23:00:00 28.4 6 Sudeste 13 Norte 0 963.8 1 16
2019-08-24 22:00:00 31.7 7 Sudeste 17 Sudeste 0 963.2 0 13
2019-08-24 21:00:00 33.5 9 Sudeste 17 Sudeste 0 962.9 -0.7 12
2019-08-24 20:00:00 35.6 10 Sudeste 23 Sudeste 0 962.8 -1.1 11
2019-08-24 19:00:00 36.8 6 Sudeste 26 Este 0 963.2 -1.2 10
2019-08-24 18:00:00 36.8 11 Sudeste 30 Sudeste 0 963.6 -1.5 10
2019-08-24 17:00:00 37.6 6 Este 33 Norte 0 963.9 -1.8 10
2019-08-24 16:00:00 37.2 6 Nordeste 24 Sudoeste 0 964.4 -1.8 10
2019-08-24 15:00:00 35.9 16 Este 27 Sudeste 0 965.1 -1.6 11
2019-08-24 14:00:00 34.9 8 Este 17 Sudeste 0 965.7 -1.2 12
2019-08-24 13:00:00 33.7 8 Este 19 Nordeste 0 966.2 -0.6 14
2019-08-24 12:00:00 31.7 5 Norte 10 Norte 0 966.7 0.4 18
2019-08-24 11:00:00 28.6 3 Sudeste 8 Noroeste 0 966.9 0.9 21
2019-08-24 10:00:00 24.9 4 Noroeste 7 Oeste 0 966.8 1 23
2019-08-24 09:00:00 22.3 3 Oeste 5 Oeste 0 966.3 0.6 27
2019-08-24 08:00:00 18.9 3 Sur 8 Sur 0 966 0.4 33
2019-08-24 07:00:00 19.6 3 Sur 6 Sudeste 0 965.8 0.3 33
2019-08-24 06:00:00 21.5 2 Sur 9 Sudoeste 0 965.7 0.2 29
2019-08-24 05:00:00 22.1 3 Sudoeste 6 Sudoeste 0 965.6 0.3 27
2019-08-24 04:00:00 22.7 4 Sudoeste 7 Oeste 0 965.5 0.6 25
2019-08-24 03:00:00 23.8 3 Sur 10 Sudoeste 0 965.5 0.8 21
2019-08-24 02:00:00 25.7 4 Este 21 Este 0 965.3 0.7 17
2019-08-24 01:00:00 29.3 12 Este 31 Este 0 964.9 0.9 12
2019-08-24 00:00:00 30.7 17 Sudeste 28 Este 0 964.7 1.2 11
2019-08-23 23:00:00 30.6 12 Este 30 Sudeste 0 964.6 1.1 13
2019-08-23 22:00:00 30.1 3 Sudoeste 7 Sur 0 964 0.2 19
2019-08-23 21:00:00 33.2 5 Norte 9 Norte 0 963.5 -0.5 14
2019-08-23 20:00:00 35.5 3 Nordeste 12 Sudeste 0 963.5 -0.9 13
2019-08-23 19:00:00 35.8 6 Nordeste 24 Nordeste 0 963.8 -1 14
2019-08-23 18:00:00 36.8 5 Norte 17 Noroeste 0 964 -1.5 14
2019-08-23 17:00:00 34.4 7 Este 21 Noroeste 0 964.4 -1.9 16
2019-08-23 16:00:00 36.4 9 Norte 22 Nordeste 0 964.8 -2 15
2019-08-23 15:00:00 36.1 8 Norte 15 Norte 0 965.5 -1.7 13
2019-08-23 14:00:00 33.9 5 Nordeste 16 Norte 0 966.3 -1.2 22
2019-08-23 13:00:00 32.6 5 Nordeste 15 Nordeste 0 966.8 -0.6 25
2019-08-23 12:00:00 31.1 7 Este 18 Este 0 967.2 -0.1 28
2019-08-23 11:00:00 29.5 9 Nordeste 15 Este 0 967.5 0.8 31
2019-08-23 10:00:00 27.2 3 Este 7 Nordeste 0 967.4 1.2 29
2019-08-23 09:00:00 23.6 3 Oeste 5 Sudoeste 0 967.3 1.2 32
2019-08-23 08:00:00 21 4 Sur 6 Sudeste 0 966.7 1 38
2019-08-23 07:00:00 21.4 5 Sur 8 Sudoeste 0 966.2 0.8 37
2019-08-23 06:00:00 23.1 4 Sudoeste 12 Sudoeste 0 966.1 1 31
2019-08-23 05:00:00 24.2 6 Sudoeste 14 Oeste 0 965.7 0.4 29
2019-08-23 04:00:00 26.9 7 Sudoeste 36 Sudeste 0 965.4 0 27
2019-08-23 03:00:00 28.5 19 Sudeste 38 Sudeste 0 965.1 -0.3 23
2019-08-23 02:00:00 29 21 Este 32 Este 0 965.3 0.3 18
2019-08-23 01:00:00 27.5 11 Este 21 Este 0 965.4 0.8 20
2019-08-23 00:00:00 26.5 5 Sudoeste 17 Norte 0 965.4 1 21
2019-08-22 23:00:00 30.8 11 Este 20 Este 0 965 0.9 14
2019-08-22 22:00:00 31.1 8 Este 14 Sudeste 0 964.6 0.4 14
2019-08-22 21:00:00 33.1 8 Este 20 Sudeste 0 964.4 -0.1 13
2019-08-22 20:00:00 34.8 9 Sudeste 21 Sudeste 0 964.1 -0.8 12
2019-08-22 19:00:00 35.7 10 Nordeste 30 Este 0 964.2 -1.2 12
2019-08-22 18:00:00 36 10 Este 31 Este 0 964.5 -1.6 12
2019-08-22 17:00:00 35.6 9 Este 29 Sudeste 0 964.9 -1.7 12
2019-08-22 16:00:00 35.3 12 Este 31 Nordeste 0 965.4 -2 13
2019-08-22 15:00:00 34.3 14 Este 26 Este 0 966.1 -1.7 15
2019-08-22 14:00:00 33.7 11 Este 24 Sudeste 0 966.6 -1.3 18
2019-08-22 13:00:00 32.3 13 Este 24 Sudeste 0 967.4 -0.6 22
2019-08-22 12:00:00 29.7 13 Este 24 Sudeste 0 967.8 0 31
2019-08-22 11:00:00 27.5 15 Este 25 Este 0 967.9 0.5 39
2019-08-22 10:00:00 25.1 8 Este 15 Sudeste 0 968 1 49
2019-08-22 09:00:00 22.3 3 Norte 6 Nordeste 0 967.8 0.9 57
2019-08-22 08:00:00 19.7 3 Sudoeste 7 Sudoeste 0 967.4 0.5 68
2019-08-22 07:00:00 19.8 2 Oeste 8 Oeste 0 967 0 67
2019-08-22 06:00:00 20.7 4 Sudoeste 9 Norte 0 966.9 -0.1 63
2019-08-22 05:00:00 22.2 6 Este 15 Este 0 966.9 0 59
2019-08-22 04:00:00 23.1 7 Este 22 Este 0 967 0.5 57
2019-08-22 03:00:00 24.2 13 Este 38 Sudeste 0 967 0.8 55
2019-08-22 02:00:00 25.7 19 Este 34 Este 0 966.9 1.2 48
2019-08-22 01:00:00 26.9 18 Este 32 Este 0 966.5 1.6 42
2019-08-22 00:00:00 27.4 13 Este 23 Este 0 966.2 1.7 38
2019-08-21 23:00:00 26.6 3 Sur 7 Sur 0 965.7 1.6 27
2019-08-21 22:00:00 28.2 4 Sur 8 Noroeste 0 964.9 0.9 25
2019-08-21 21:00:00 30.9 8 Noroeste 14 Noroeste 0 964.5 0.3 20
2019-08-21 20:00:00 33.4 8 Noroeste 20 Norte 0 964.1 -0.3 14
2019-08-21 19:00:00 33.8 9 Noroeste 27 Norte 0 964 -1 16
2019-08-21 18:00:00 33.6 21 Norte 37 Nordeste 0 964.2 -1.2 21
2019-08-21 17:00:00 35.4 13 Norte 24 Norte 0 964.4 -1.4 12
2019-08-21 16:00:00 34.8 10 Noroeste 22 Noroeste 0 965 -1.4 13
2019-08-21 15:00:00 33.6 5 Nordeste 14 Este 0 965.4 -1.3 18
2019-08-21 14:00:00 31.6 6 Norte 21 Noroeste 0 965.8 -1.1 21
2019-08-21 13:00:00 31.5 6 Nordeste 20 Noroeste 0 966.4 -0.2 23
2019-08-21 12:00:00 29 6 Noroeste 11 Nordeste 0 966.7 0.3 28
2019-08-21 11:00:00 28.4 4 Este 13 Nordeste 0 966.9 0.9 32
2019-08-21 10:00:00 24.2 4 Norte 7 Nordeste 0 966.6 1 56
2019-08-21 09:00:00 21.5 2 Sur 6 Noroeste 0 966.4 1 64
2019-08-21 08:00:00 20.3 4 Oeste 9 Este 0 966 0.9 69
2019-08-21 07:00:00 20.6 4 Nordeste 10 Nordeste 0 965.6 0.7 66
2019-08-21 06:00:00 21.3 6 Nordeste 13 Nordeste 0 965.4 0.6 64
2019-08-21 05:00:00 22.5 8 Nordeste 13 Este 0 965.1 0.6 60
2019-08-21 04:00:00 24 6 Este 15 Este 0 964.9 0.4 55
2019-08-21 03:00:00 25.4 9 Este 26 Este 0 964.8 0.5 50
2019-08-21 02:00:00 25.9 10 Este 20 Este 0 964.5 0.3 40
2019-08-21 01:00:00 23.3 3 Sudeste 7 Sudeste 0 964.5 0.8 32
2019-08-21 00:00:00 25.2 3 Este 8 Sudeste 0 964.3 1.1 28
2019-08-20 23:00:00 27.4 3 Sudeste 12 Sudoeste 0 964.2 1.2 25
2019-08-20 22:00:00 28.8 2 Noroeste 14 Oeste 0 963.7 0.8 22
2019-08-20 21:00:00 31.3 11 Oeste 21 Oeste 0 963.2 0.1 18
2019-08-20 20:00:00 33.5 15 Oeste 23 Oeste 0 963 -0.5 14
2019-08-20 19:00:00 35.1 4 Sudoeste 12 Noroeste 0 962.9 -1.3 13
2019-08-20 18:00:00 34.8 5 Oeste 19 Sudoeste 0 963.1 -1.4 13
2019-08-20 17:00:00 34.6 6 Oeste 15 Nordeste 0 963.5 -1.4 13
2019-08-20 16:00:00 33.8 9 Oeste 18 Noroeste 0 964.2 -1.3 14
2019-08-20 15:00:00 33.2 11 Norte 17 Norte 0 964.5 -1 14
2019-08-20 14:00:00 31.5 5 Este 17 Norte 0 964.9 -0.4 19
2019-08-20 13:00:00 29.5 4 Sur 15 Noroeste 0 965.5 0.5 23
2019-08-20 12:00:00 27.2 4 Noroeste 10 Oeste 0 965.5 0.8 27
2019-08-20 11:00:00 24.3 4 Oeste 9 Oeste 0 965.3 1.3 34
2019-08-20 10:00:00 21.8 4 Oeste 7 Noroeste 0 965 1.5 42
2019-08-20 09:00:00 19 4 Norte 7 Oeste 0 964.7 1.7 53
2019-08-20 08:00:00 18.7 3 Oeste 7 Oeste 0 964 0.9 52
2019-08-20 07:00:00 19.6 7 Oeste 18 Oeste 0 963.5 0.3 50
2019-08-20 06:00:00 21.1 6 Sudoeste 10 Sudoeste 0 963 -0.1 38
2019-08-20 05:00:00 21.6 6 Sudoeste 19 Sudoeste 0 963.1 -0.1 34
2019-08-20 04:00:00 22.4 6 Sudoeste 21 Sudoeste 0 963.2 -0.1 32
2019-08-20 03:00:00 24.4 6 Sudoeste 21 Sudoeste 0 963.1 0.3 27
2019-08-20 02:00:00 25 6 Sudoeste 12 Oeste 0 963.2 0.5 26
2019-08-20 01:00:00 25.5 7 Oeste 18 Oeste 0 963.3 1.1 21
2019-08-20 00:00:00 26.3 6 Oeste 24 Sudoeste 0 962.8 0.8 18
2019-08-19 23:00:00 26.9 10 Sudoeste 19 Oeste 0 962.7 0.8 17
2019-08-19 22:00:00 27.4 6 Oeste 22 Sudoeste 0 962.2 0.2 20
2019-08-19 21:00:00 29.2 13 Oeste 26 Oeste 0 962 -0.5 18
2019-08-19 20:00:00 30.9 19 Noroeste 32 Noroeste 0 961.9 -0.8 17
2019-08-19 19:00:00 32.6 19 Oeste 35 Oeste 0 962 -1.1 15
2019-08-19 18:00:00 32.6 16 Oeste 35 Oeste 0 962.5 -1 13
2019-08-19 17:00:00 33 15 Oeste 31 Oeste 0 962.7 -1.1 15
2019-08-19 16:00:00 32.9 15 Oeste 31 Sudoeste 0 963.1 -1 14
2019-08-19 15:00:00 32.4 13 Sudoeste 26 Sudoeste 0 963.5 -0.4 17
2019-08-19 14:00:00 30.7 10 Oeste 25 Oeste 0 963.8 -0.3 19
2019-08-19 13:00:00 30.3 13 Oeste 22 Oeste 0 964.1 0.3 21
2019-08-19 12:00:00 28.4 5 Oeste 14 Oeste 0 963.9 -0.1 33
2019-08-19 11:00:00 25.7 6 Noroeste 14 Sudoeste 0 964.1 0.3 48
2019-08-19 10:00:00 23.8 6 Sur 11 Sur 0 963.8 0.4 56
2019-08-19 09:00:00 22.4 3 Sur 15 Sudoeste 0 964 0.9 63
2019-08-19 08:00:00 20.4 6 Sudoeste 19 Sur 0 963.8 0.8 70
2019-08-19 07:00:00 20.4 0 Calma 12 Sur 0 963.4 0.3 70
2019-08-19 06:00:00 21 3 Noroeste 13 Oeste 0 963.1 -0.3 67
2019-08-19 05:00:00 22.1 6 Oeste 24 Sudoeste 0 963 -0.6 62
2019-08-19 04:00:00 23.1 14 Sudoeste 21 Sudoeste 0 963.1 -0.4 60
2019-08-19 03:00:00 24.1 10 Sudoeste 19 Oeste 0 963.4 0.4 56
2019-08-19 02:00:00 25 9 Oeste 19 Oeste 0 963.6 1 50
2019-08-19 01:00:00 26 11 Oeste 21 Oeste 0 963.5 1.5 43
2019-08-19 00:00:00 26.8 6 Oeste 14 Oeste 0 963 1.6 36
2019-08-18 23:00:00 28 9 Oeste 23 Oeste 0 962.6 1.2 30
2019-08-18 22:00:00 29.3 14 Oeste 25 Oeste 0 962 0.2 26
2019-08-18 21:00:00 31.2 11 Oeste 26 Oeste 0 961.4 -0.6 22
2019-08-18 20:00:00 33.4 12 Oeste 24 Oeste 0 961.4 -0.6 17
2019-08-18 19:00:00 34.1 15 Oeste 30 Oeste 0 961.8 -0.6 15
2019-08-18 18:00:00 34.3 15 Oeste 35 Oeste 0 962 -0.6 13
2019-08-18 17:00:00 34.6 21 Oeste 39 Oeste 0 962 -0.8 10
2019-08-18 16:00:00 34.1 15 Oeste 31 Sudoeste 0 962.4 -0.8 14
2019-08-18 15:00:00 33.9 13 Sudoeste 30 Oeste 0 962.6 -0.8 14
2019-08-18 14:00:00 33.4 15 Sudoeste 28 Sudoeste 0 962.8 -0.3 14
2019-08-18 13:00:00 31.4 12 Oeste 21 Oeste 0 963.2 0.1 21
2019-08-18 12:00:00 29.9 11 Sudoeste 18 Oeste 0 963.4 0.9 23
2019-08-18 11:00:00 27.3 8 Oeste 15 Noroeste 0 963.1 0.9 33
2019-08-18 10:00:00 25.4 9 Noroeste 17 Noroeste 0 963.1 1.5 41
2019-08-18 09:00:00 23.9 2 Nordeste 8 Nordeste 0 962.5 1.1 36
2019-08-18 08:00:00 23.1 3 Norte 13 Sudoeste 0 962.2 0.7 44
2019-08-18 07:00:00 21.7 4 Sur 14 Oeste 0 961.6 0.2 38
2019-08-18 06:00:00 21.9 3 Nordeste 10 Noroeste 0 961.4 -0.4 28
2019-08-18 05:00:00 22.6 3 Noroeste 9 Oeste 0 961.5 -0.4 27
2019-08-18 04:00:00 23.2 3 Sudeste 6 Nordeste 0 961.4 -0.3 26
2019-08-18 03:00:00 25.7 3 Sudoeste 18 Sudoeste 0 961.8 0.3 19
2019-08-18 02:00:00 26.4 10 Oeste 17 Sudoeste 0 961.9 0.4 16
2019-08-18 01:00:00 27.9 4 Nordeste 18 Sudoeste 0 961.7 0.6 12
2019-08-18 00:00:00 30.3 9 Sudoeste 19 Sudoeste 0 961.5 0.7 10
2019-08-17 23:00:00 31.1 9 Oeste 21 Oeste 0 961.5 0.9 10
2019-08-17 22:00:00 32.2 10 Sudoeste 18 Oeste 0 961.1 0.1 13
2019-08-17 21:00:00 34.5 12 Oeste 24 Oeste 0 960.8 -0.5 14
2019-08-17 20:00:00 36.4 16 Noroeste 27 Oeste 0 960.6 -1.1 13
2019-08-17 19:00:00 37.7 14 Oeste 31 Noroeste 0 961 -1.4 13
2019-08-17 18:00:00 38.5 11 Oeste 28 Oeste 0 961.3 -1.9 12
2019-08-17 17:00:00 38.7 10 Sudoeste 27 Oeste 0 961.7 -2.1 12
2019-08-17 16:00:00 37.6 16 Noroeste 28 Oeste 0 962.4 -1.9 13
2019-08-17 15:00:00 36.9 13 Oeste 31 Oeste 0 963.2 -1.7 14
2019-08-17 14:00:00 36.3 13 Oeste 22 Oeste 0 963.8 -1.3 15
2019-08-17 13:00:00 34.8 9 Oeste 15 Nordeste 0 964.3 -1.1 17
2019-08-17 12:00:00 31.6 5 Norte 10 Nordeste 0 964.9 -0.1 23
2019-08-17 11:00:00 28.5 5 Oeste 8 Oeste 0 965.1 0.7 29
2019-08-17 10:00:00 25.8 4 Noroeste 8 Noroeste 0 965.4 1.2 34
2019-08-17 09:00:00 23.3 2 Nordeste 4 Sudeste 0 965 1 38
2019-08-17 08:00:00 20.4 0 Calma 5 Sudeste 0 964.4 0.4 52
2019-08-17 07:00:00 21.7 0 Calma 8 Noroeste 0 964.2 0.1 43
2019-08-17 06:00:00 22.6 5 Noroeste 12 Sur 0 964 -0.2 41
2019-08-17 05:00:00 24.2 6 Sur 9 Sur 0 964 -0.2 36
2019-08-17 04:00:00 25.7 0 Calma 12 Sur 0 964.1 0.1 32
2019-08-17 03:00:00 27.8 5 Sur 15 Sudoeste 0 964.2 0.5 28
2019-08-17 02:00:00 28.3 4 Sudeste 13 Sudoeste 0 964.2 0.6 27
2019-08-17 01:00:00 29.6 4 Sur 16 Oeste 0 964 0.8 24
2019-08-17 00:00:00 28.6 3 Sur 7 Oeste 0 963.7 0.7 25
2019-08-16 23:00:00 29.9 4 Oeste 6 Oeste 0 963.6 0.8 23
2019-08-16 22:00:00 31.6 3 Sudeste 17 Oeste 0 963.2 0.3 20
2019-08-16 21:00:00 34.6 9 Oeste 24 Sudoeste 0 963 -0.2 17
2019-08-16 20:00:00 36.7 10 Oeste 24 Sudoeste 0 962.8 -0.7 13
2019-08-16 19:00:00 37.3 15 Oeste 36 Oeste 0 962.9 -1.2 10
2019-08-16 18:00:00 38 13 Oeste 33 Oeste 0 963.2 -1.5 13
2019-08-16 17:00:00 37.5 16 Sudoeste 33 Oeste 0 963.5 -1.5 13
2019-08-16 16:00:00 37.3 18 Oeste 37 Sudoeste 0 964.1 -1.3 15
2019-08-16 15:00:00 36.8 14 Oeste 28 Oeste 0 964.7 -1 14
2019-08-16 14:00:00 36.1 10 Sudoeste 26 Sudoeste 0 965 -0.7 17
2019-08-16 13:00:00 34.4 13 Oeste 18 Oeste 0 965.4 -0.4 20
2019-08-16 12:00:00 32.5 8 Sur 19 Sudeste 0 965.7 0.1 22
2019-08-16 11:00:00 30.2 8 Sudoeste 15 Sudoeste 0 965.7 0.5 27
2019-08-16 10:00:00 27.3 4 Oeste 8 Oeste 0 965.8 1.1 33
2019-08-16 09:00:00 24.8 3 Nordeste 6 Sudeste 0 965.6 0.9 36
2019-08-16 08:00:00 19.9 0 Calma 5 Sudeste 0 965.2 0.8 47
2019-08-16 07:00:00 21.4 3 Sudeste 6 Sudeste 0 964.7 0.2 48
2019-08-16 06:00:00 21.5 2 Sur 8 Noroeste 0 964.7 0.2 46
2019-08-16 05:00:00 22.3 3 Sudeste 7 Sudoeste 0 964.4 -0.3 42
2019-08-16 04:00:00 23.9 6 Sudoeste 8 Sudoeste 0 964.5 -0.2 40
2019-08-16 03:00:00 24.9 4 Sur 10 Noroeste 0 964.5 -0.2 34
2019-08-16 02:00:00 25.2 3 Sur 5 Sudeste 0 964.7 0 34
2019-08-16 01:00:00 27.2 2 Sudeste 7 Sudeste 0 964.7 0.4 32
2019-08-16 00:00:00 29.9 4 Oeste 7 Sudoeste 0 964.7 0.8 26
2019-08-15 23:00:00 31.2 4 Sudoeste 15 Oeste 0 964.7 1 24
2019-08-15 22:00:00 32.3 8 Sudoeste 18 Oeste 0 964.3 0.5 21
2019-08-15 21:00:00 34.5 11 Oeste 23 Sudoeste 0 963.9 0 18
2019-08-15 20:00:00 36.4 13 Oeste 26 Noroeste 0 963.7 -0.6 17
2019-08-15 19:00:00 37.2 12 Oeste 26 Noroeste 0 963.8 -1.2 15
2019-08-15 18:00:00 37.8 4 Sudoeste 24 Noroeste 0 963.9 -1.4 13
2019-08-15 17:00:00 38.2 5 Norte 21 Noroeste 0 964.3 -1.5 12
2019-08-15 16:00:00 37.2 12 Oeste 24 Oeste 0 965 -1.2 13
2019-08-15 15:00:00 37.1 11 Norte 22 Oeste 0 965.3 -1.5 12
2019-08-15 14:00:00 36.2 10 Oeste 24 Sudoeste 0 965.8 -1 13
2019-08-15 13:00:00 34.8 7 Noroeste 15 Noroeste 0 966.2 -0.7 13
2019-08-15 12:00:00 32.2 6 Oeste 13 Oeste 0 966.8 0 15
2019-08-15 11:00:00 29.4 4 Nordeste 9 Nordeste 0 966.8 0.4 18
2019-08-15 10:00:00 26.2 3 Nordeste 6 Nordeste 0 966.9 0.8 22
2019-08-15 09:00:00 21.8 2 Oeste 4 Norte 0 966.8 0.9 32
2019-08-15 08:00:00 18 0 Calma 5 Sudeste 0 966.4 0.9 38
2019-08-15 07:00:00 19.2 3 Sur 4 Sur 0 966.1 0.6 39
2019-08-15 06:00:00 18.7 2 Sur 4 Oeste 0 965.9 0.2 35
2019-08-15 05:00:00 19.8 0 Calma 4 Nordeste 0 965.5 -0.4 34
2019-08-15 04:00:00 21.1 3 Este 6 Sudoeste 0 965.5 -0.6 32
2019-08-15 03:00:00 20.8 2 Oeste 5 Sudoeste 0 965.7 -0.4 30
2019-08-15 02:00:00 22.5 5 Sudeste 6 Sudeste 0 965.9 0 27
2019-08-15 01:00:00 24.8 3 Noroeste 6 Sudoeste 0 966.1 0.7 22
2019-08-15 00:00:00 27 3 Nordeste 9 Oeste 0 966.1 1.1 21
2019-08-14 23:00:00 28.7 2 Sudoeste 8 Sudoeste 0 965.9 1.1 18
2019-08-14 22:00:00 30.1 5 Sudoeste 14 Sudoeste 0 965.4 0.3 15
2019-08-14 21:00:00 33.1 8 Oeste 19 Oeste 0 965 -0.3 13
2019-08-14 20:00:00 35 12 Oeste 26 Oeste 0 964.8 -0.7 12
2019-08-14 19:00:00 36.2 5 Oeste 23 Noroeste 0 965.1 -1 10
2019-08-14 18:00:00 35.7 13 Noroeste 25 Noroeste 0 965.3 -1.4 10
2019-08-14 17:00:00 36.1 12 Noroeste 28 Noroeste 0 965.5 -1.6 10
2019-08-14 16:00:00 35.3 8 Oeste 26 Noroeste 0 966.1 -1.5 10
2019-08-14 15:00:00 35 10 Oeste 21 Oeste 0 966.7 -1.1 10
2019-08-14 14:00:00 34.3 8 Noroeste 21 Noroeste 0 967.1 -0.6 10
2019-08-14 13:00:00 33.2 6 Noroeste 15 Sudoeste 0 967.6 -0.4 12
2019-08-14 12:00:00 30.9 3 Oeste 10 Oeste 0 967.8 0.3 13
2019-08-14 11:00:00 27.3 3 Norte 8 Sudoeste 0 967.7 0.5 16
2019-08-14 10:00:00 22.9 4 Oeste 9 Norte 0 968 1.1 21
2019-08-14 09:00:00 19.3 3 Nordeste 7 Norte 0 967.5 0.7 27
2019-08-14 08:00:00 16.8 0 Calma 5 Sudeste 0 967.2 0.6 35
2019-08-14 07:00:00 16 2 Este 7 Sudoeste 0 966.9 0.2 35
2019-08-14 06:00:00 16.7 0 Calma 5 Sudoeste 0 966.8 0.1 33
2019-08-14 05:00:00 16.8 0 Calma 6 Sudoeste 0 966.6 0.1 30
2019-08-14 04:00:00 19.2 7 Sudoeste 9 Oeste 0 966.7 0.4 26
2019-08-14 03:00:00 18 3 Noroeste 6 Norte 0 966.7 0.6 29
2019-08-14 02:00:00 20.9 4 Sur 5 Sur 0 966.5 0.6 26
2019-08-14 01:00:00 21.7 2 Oeste 5 Sur 0 966.3 1 24
2019-08-14 00:00:00 23.5 3 Sur 6 Sudeste 0 966.1 1.5 21
2019-08-13 23:00:00 25.5 5 Noroeste 8 Oeste 0 965.9 1.5 17
2019-08-13 22:00:00 28 5 Oeste 14 Oeste 0 965.3 0.8 13
2019-08-13 21:00:00 31.3 8 Oeste 21 Oeste 0 964.6 -0.1 11
2019-08-13 20:00:00 33.2 12 Oeste 19 Oeste 0 964.4 -0.6 11
2019-08-13 19:00:00 34.1 10 Oeste 18 Oeste 0 964.5 -1.3 9
2019-08-13 18:00:00 34 9 Noroeste 22 Noroeste 0 964.7 -1.4 9
2019-08-13 17:00:00 33.6 12 Norte 23 Noroeste 0 965 -1.5 9
2019-08-13 16:00:00 32.7 13 Noroeste 28 Noroeste 0 965.8 -1.1 9
2019-08-13 15:00:00 32 6 Norte 23 Noroeste 0 966.1 -1.1 10
2019-08-13 14:00:00 31.7 9 Norte 20 Noroeste 0 966.5 -0.5 12
2019-08-13 13:00:00 30.2 8 Nordeste 15 Nordeste 0 966.9 0.1 14
2019-08-13 12:00:00 28.4 7 Nordeste 14 Norte 0 967.2 0.5 19
2019-08-13 11:00:00 26.3 5 Norte 13 Norte 0 967 0.9 21
2019-08-13 10:00:00 23.7 3 Nordeste 8 Nordeste 0 966.8 1.1 22
2019-08-13 09:00:00 20.7 2 Este 5 Oeste 0 966.7 1.3 27
2019-08-13 08:00:00 16.6 4 Sudoeste 6 Oeste 0 966.1 0.6 33
2019-08-13 07:00:00 16.8 5 Sudoeste 8 Sudoeste 0 965.7 0.1 32
2019-08-13 06:00:00 18 4 Sudoeste 6 Sudoeste 0 965.4 -0.6 28
2019-08-13 05:00:00 18.2 2 Sudoeste 6 Sudeste 0 965.5 -0.9 26
2019-08-13 04:00:00 19.9 4 Sur 5 Sur 0 965.6 -0.3 23
2019-08-13 03:00:00 21.1 3 Sudoeste 7 Oeste 0 966 0.7 22
2019-08-13 02:00:00 21.9 4 Sudoeste 7 Sudoeste 0 966.4 1 19
2019-08-13 01:00:00 22.6 3 Oeste 8 Oeste 0 965.9 0.9 15
2019-08-13 00:00:00 24.5 5 Nordeste 16 Este 0 965.3 0.8 13
2019-08-12 23:00:00 25 8 Este 15 Este 0 965.4 1.4 12
2019-08-12 22:00:00 25.1 4 Sudeste 9 Norte 0 965 1 13
2019-08-12 21:00:00 27.9 10 Norte 21 Norte 0 964.5 0.2 10
2019-08-12 20:00:00 30.2 13 Norte 28 Norte 0 964 -0.7 10
2019-08-12 19:00:00 31.1 12 Norte 23 Norte 0 964 -1.3 10
2019-08-12 18:00:00 30.7 8 Norte 25 Norte 0 964.3 -1.5 10
2019-08-12 17:00:00 30.5 9 Nordeste 24 Norte 0 964.7 -1.5 12
2019-08-12 16:00:00 30.1 12 Nordeste 26 Nordeste 0 965.3 -1.4 12
2019-08-12 15:00:00 28.9 15 Este 25 Este 0 965.8 -1.1 14
2019-08-12 14:00:00 28.6 8 Este 26 Nordeste 0 966.2 -0.5 16
2019-08-12 13:00:00 27.5 10 Este 32 Este 0 966.7 -0.1 17
2019-08-12 12:00:00 25.8 8 Norte 18 Norte 0 966.9 0.6 21
2019-08-12 11:00:00 22.8 3 Sur 8 Nordeste 0 966.7 1.1 27
2019-08-12 10:00:00 19.3 4 Sudoeste 8 Norte 0 966.8 1.5 36
2019-08-12 09:00:00 16.9 0 Calma 5 Norte 0 966.3 1.1 40
2019-08-12 08:00:00 13.3 2 Sudeste 5 Sudeste 0 965.6 0.4 50
2019-08-12 07:00:00 13.6 4 Nordeste 11 Sur 0 965.3 0 43
2019-08-12 06:00:00 13.6 3 Nordeste 7 Norte 0 965.2 -0.5 45
2019-08-12 05:00:00 14.9 0 Calma 8 Sudeste 0 965.2 -0.8 43
2019-08-12 04:00:00 17.1 6 Sur 11 Noroeste 0 965.3 -0.7 35
2019-08-12 03:00:00 18.5 3 Sur 8 Oeste 0 965.7 -0.3 31
2019-08-12 02:00:00 20.1 7 Oeste 11 Oeste 0 966 0.3 32
2019-08-12 01:00:00 21.1 8 Oeste 15 Oeste 0 966 0.7 26
2019-08-12 00:00:00 22.2 6 Oeste 17 Oeste 0 966 1.2 25
2019-08-11 23:00:00 22.7 8 Oeste 16 Oeste 0 965.7 1.4 23
2019-08-11 22:00:00 23.9 6 Oeste 21 Oeste 0 965.3 0.7 18
2019-08-11 21:00:00 26.3 12 Oeste 31 Oeste 0 964.8 0.2 15
2019-08-11 20:00:00 26.9 15 Oeste 30 Oeste 0 964.3 -0.5 15
2019-08-11 19:00:00 27.9 14 Sudoeste 32 Oeste 0 964.6 -0.7 16
2019-08-11 18:00:00 29.3 18 Noroeste 34 Oeste 0 964.6 -1.3 16
2019-08-11 17:00:00 29.5 12 Oeste 35 Oeste 0 964.8 -1.5 19
2019-08-11 16:00:00 29 18 Oeste 37 Oeste 0 965.3 -1.3 19
2019-08-11 15:00:00 27.1 20 Oeste 32 Oeste 0 965.9 -0.5 22
2019-08-11 14:00:00 26.5 15 Sudoeste 29 Oeste 0 966.3 -0.1 28
2019-08-11 13:00:00 24.6 16 Oeste 27 Oeste 0 966.6 0.3 36
2019-08-11 12:00:00 24.3 10 Oeste 20 Oeste 0 966.4 0.1 38
2019-08-11 11:00:00 22.1 10 Oeste 21 Sudoeste 0 966.4 0.6 44
2019-08-11 10:00:00 20.3 13 Sudoeste 22 Sudoeste 0 966.3 1.3 48
2019-08-11 09:00:00 19 10 Sudoeste 18 Oeste 0 966.3 1.8 52
2019-08-11 08:00:00 17.4 9 Oeste 27 Oeste 0 965.8 1.4 57
2019-08-11 07:00:00 19.1 11 Sudoeste 21 Sudoeste 0 965 -0.3 54
2019-08-11 06:00:00 19.9 8 Sudoeste 19 Sudoeste 0 964.5 -0.3 50
2019-08-11 05:00:00 19.7 5 Sudeste 24 Sudoeste 0 964.4 -0.4 50
2019-08-11 04:00:00 20.8 9 Oeste 34 Sudoeste 0 965.3 0.7 46
2019-08-11 03:00:00 21.8 10 Oeste 27 Sudoeste 0 964.8 0.2 41
2019-08-11 02:00:00 22.9 12 Oeste 19 Sudoeste 0 964.8 0.1 32
2019-08-11 01:00:00 23.9 4 Sudoeste 9 Sudoeste 0 964.6 0.4 24
2019-08-11 00:00:00 24.8 7 Sudoeste 11 Sudoeste 0 964.6 0.5 22
2019-08-10 23:00:00 25 4 Noroeste 9 Noroeste 0 964.7 0.5 23
2019-08-10 22:00:00 26.4 6 Sudoeste 10 Oeste 0 964.2 -0.2 19
2019-08-10 21:00:00 28.6 9 Oeste 24 Oeste 0 964.1 -0.7 14
2019-08-10 20:00:00 31 14 Oeste 27 Oeste 0 964.2 -1.3 14
2019-08-10 19:00:00 32.2 12 Oeste 26 Oeste 0 964.4 -1.9 13
2019-08-10 18:00:00 31.7 17 Oeste 29 Oeste 0 964.8 -2 15
2019-08-10 17:00:00 31.8 14 Oeste 27 Oeste 0 965.5 -1.7 17
2019-08-10 16:00:00 31.2 13 Noroeste 25 Oeste 0 966.3 -1.3 22
2019-08-10 15:00:00 30.1 13 Oeste 30 Noroeste 0 966.8 -1 25
2019-08-10 14:00:00 30.2 7 Sur 24 Oeste 0 967.2 -0.7 24
2019-08-10 13:00:00 28.3 9 Sudoeste 18 Sudoeste 0 967.6 -0.5 28
2019-08-10 12:00:00 26.8 9 Oeste 15 Oeste 0 967.8 0.1 33
2019-08-10 11:00:00 25.8 5 Sudoeste 13 Noroeste 0 967.9 0.3 39
2019-08-10 10:00:00 23.8 3 Sudoeste 10 Oeste 0 968.1 1 47
2019-08-10 09:00:00 22.4 2 Nordeste 8 Oeste 0 967.7 0.8 52
2019-08-10 08:00:00 19 4 Oeste 7 Oeste 0 967.6 1 64
2019-08-10 07:00:00 19 3 Norte 7 Sur 0 967.1 0.6 63
2019-08-10 06:00:00 20.2 5 Oeste 11 Oeste 0 966.9 0.3 59
2019-08-10 05:00:00 20.3 3 Noroeste 8 Oeste 0 966.6 -0.3 58
2019-08-10 04:00:00 21.1 3 Sur 21 Sudoeste 0 966.5 -0.2 56
2019-08-10 03:00:00 21.8 14 Sudoeste 19 Sudoeste 0 966.6 0.1 54
2019-08-10 02:00:00 22.2 7 Sudoeste 14 Sudoeste 0 966.9 0.7 53
2019-08-10 01:00:00 22.9 9 Sudoeste 16 Sudoeste 0 966.7 1.2 55
2019-08-10 00:00:00 23.9 10 Sudoeste 18 Noroeste 0 966.5 1.5 57
2019-08-09 23:00:00 24.7 8 Oeste 17 Oeste 0 966.2 1.5 53
2019-08-09 22:00:00 25.9 10 Oeste 27 Noroeste 0 965.5 0.9 50
2019-08-09 21:00:00 27.6 13 Oeste 24 Oeste 0 965 0.5 47
2019-08-09 20:00:00 29.5 16 Oeste 34 Noroeste 0 964.7 -0.3 43
2019-08-09 19:00:00 31.2 17 Oeste 32 Oeste 0 964.6 -0.9 40
2019-08-09 18:00:00 31.9 15 Oeste 33 Oeste 0 964.5 -1.2 36
2019-08-09 17:00:00 31.7 17 Oeste 36 Oeste 0 965 -1.1 36
2019-08-09 16:00:00 30.6 11 Oeste 28 Oeste 0 965.5 -1.1 39
2019-08-09 15:00:00 30 11 Noroeste 25 Sudoeste 0 965.7 -1.1 41
2019-08-09 14:00:00 29.5 10 Sudoeste 23 Oeste 0 966.1 -0.3 41
2019-08-09 13:00:00 26.8 9 Oeste 18 Oeste 0 966.6 0.9 52
2019-08-09 12:00:00 24.2 8 Oeste 19 Oeste 0 966.8 1.3 61
2019-08-09 11:00:00 23.8 12 Oeste 21 Oeste 0 966.4 1.3 61
2019-08-09 10:00:00 23.7 9 Sudoeste 18 Sudoeste 0 965.7 1.1 64
2019-08-09 09:00:00 21.8 9 Sudoeste 17 Sudoeste 0 965.5 1 73
2019-08-09 08:00:00 21.6 8 Sudoeste 19 Sudoeste 0 965.1 0.8 74
2019-08-09 07:00:00 21.4 13 Sudoeste 23 Sudoeste 0 964.6 0.6 74
2019-08-09 06:00:00 22 10 Sudoeste 15 Sudoeste 0 964.5 0.6 70
2019-08-09 05:00:00 22.8 9 Oeste 14 Oeste 0 964.3 0.5 64
2019-08-09 04:00:00 23.6 4 Noroeste 17 Sudoeste 0 964 0.6 57
2019-08-09 03:00:00 24.9 6 Sudoeste 15 Sudoeste 0 963.9 1 50
2019-08-09 02:00:00 26.3 9 Oeste 24 Oeste 0 963.8 1.4 45
2019-08-09 01:00:00 27.1 8 Oeste 24 Oeste 0 963.4 1.8 40
2019-08-09 00:00:00 28.1 7 Oeste 21 Oeste 0 962.9 1.6 36
2019-08-08 23:00:00 29.2 10 Sudoeste 23 Oeste 0 962.4 1.3 32
2019-08-08 22:00:00 30.3 8 Sudoeste 18 Oeste 0 961.6 0.2 26
2019-08-08 21:00:00 32.6 11 Noroeste 23 Oeste 0 961.3 -0.3 21
2019-08-08 20:00:00 34.7 13 Oeste 27 Oeste 0 961.1 -1 19
2019-08-08 19:00:00 35.7 13 Oeste 25 Oeste 0 961.4 -1.3 17
2019-08-08 18:00:00 35.5 12 Oeste 34 Oeste 0 961.6 -1.5 17
2019-08-08 17:00:00 35.5 10 Sudoeste 28 Oeste 0 962.1 -1.5 17
2019-08-08 16:00:00 34 14 Oeste 32 Oeste 0 962.7 -1.5 20
2019-08-08 15:00:00 33.3 13 Sudoeste 26 Sudoeste 0 963.1 -1.2 21
2019-08-08 14:00:00 32.1 8 Sur 21 Sudoeste 0 963.6 -0.6 21
2019-08-08 13:00:00 30.8 11 Sudoeste 22 Sudoeste 0 964.2 -0.1 26
2019-08-08 12:00:00 29.6 8 Sudoeste 15 Sudoeste 0 964.3 0.4 29
2019-08-08 11:00:00 28.1 3 Norte 12 Norte 0 964.2 0.3 34
2019-08-08 10:00:00 25.5 2 Oeste 6 Nordeste 0 964.3 0.6 42
2019-08-08 09:00:00 21.9 0 Calma 6 Sudoeste 0 963.9 0.5 55
2019-08-08 08:00:00 18.2 4 Norte 6 Nordeste 0 963.9 0.3 62
2019-08-08 07:00:00 17.4 4 Noroeste 6 Oeste 0 963.7 -0.2 64
2019-08-08 06:00:00 17.9 2 Norte 5 Sur 0 963.4 -0.6 61
2019-08-08 05:00:00 18.8 2 Norte 5 Sur 0 963.6 -0.5 58
2019-08-08 04:00:00 18.9 0 Calma 6 Sur 0 963.9 -0.2 58
2019-08-08 03:00:00 20.2 3 Sudeste 5 Sur 0 964 -0.1 54
2019-08-08 02:00:00 20.6 3 Sudeste 6 Sudeste 0 964.1 0.1 55
2019-08-08 01:00:00 21.9 4 Sudeste 7 Sudeste 0 964.1 0.8 51
2019-08-08 00:00:00 23.5 4 Este 13 Sudoeste 0 964.1 1.2 45
2019-08-07 23:00:00 24.3 3 Sur 6 Sur 0 964 1.1 42
2019-08-07 22:00:00 25.7 4 Oeste 13 Sudoeste 0 963.3 0.3 39
2019-08-07 21:00:00 27.2 9 Oeste 17 Oeste 0 962.9 0 33
2019-08-07 20:00:00 28 10 Oeste 18 Oeste 0 962.9 -0.1 31
2019-08-07 19:00:00 27.4 10 Oeste 23 Sudoeste 0 963 -0.7 36
2019-08-07 18:00:00 29.3 8 Oeste 18 Oeste 0 962.9 0.1 29
2019-08-07 17:00:00 28.6 7 Noroeste 14 Oeste 0 963 -1 32
2019-08-07 16:00:00 29.2 9 Noroeste 25 Noroeste 0 963.7 -0.4 31
2019-08-07 15:00:00 27.8 7 Nordeste 19 Norte 0 962.8 -1 31
2019-08-07 14:00:00 28.2 9 Oeste 17 Oeste 0 964 0.8 32
2019-08-07 13:00:00 26.9 8 Oeste 18 Oeste 0 964.1 1.1 39
2019-08-07 12:00:00 25.8 9 Oeste 18 Oeste 0 963.8 1.4 43
2019-08-07 11:00:00 24.4 6 Sudoeste 13 Sudoeste 0 963.2 1.1 51
2019-08-07 10:00:00 22.2 8 Oeste 15 Oeste 0 963 1.6 59
2019-08-07 09:00:00 21.5 7 Oeste 12 Sudoeste 0 962.4 1.3 62
2019-08-07 08:00:00 20.4 7 Oeste 15 Sudoeste 0 962.1 1.1 66
2019-08-07 07:00:00 20.9 9 Oeste 13 Oeste 0 961.4 0.1 64
2019-08-07 06:00:00 21.8 7 Sudoeste 18 Sudoeste 0 961.1 0.1 59
2019-08-07 05:00:00 22.7 11 Sudoeste 18 Sudoeste 0 961 -0.3 54
2019-08-07 04:00:00 23.5 6 Oeste 19 Sudoeste 0 961.3 0 52
2019-08-07 03:00:00 24.8 11 Sudoeste 23 Oeste 0 961 -0.1 45
2019-08-07 02:00:00 25.8 9 Sudoeste 18 Oeste 0 961.3 0.6 38
2019-08-07 01:00:00 27.1 11 Oeste 20 Oeste 0 961.3 1.3 32
2019-08-07 00:00:00 27.7 9 Sudoeste 20 Sudoeste 0 961.1 1.5 29
2019-08-06 23:00:00 28.8 11 Oeste 19 Sudoeste 0 960.7 1.1 25
2019-08-06 22:00:00 29.8 8 Sudoeste 16 Oeste 0 960 0.1 20
2019-08-06 21:00:00 31.5 13 Oeste 21 Oeste 0 959.6 -0.6 17
2019-08-06 20:00:00 33.3 14 Noroeste 26 Noroeste 0 959.6 -0.8 16
2019-08-06 19:00:00 34 18 Noroeste 28 Oeste 0 959.9 -1.4 15
2019-08-06 18:00:00 35.9 13 Noroeste 30 Noroeste 0 960.2 -1.7 13
2019-08-06 17:00:00 35.8 14 Oeste 32 Oeste 0 960.4 -2.2 13
2019-08-06 16:00:00 35.2 16 Oeste 28 Oeste 0 961.3 -1.7 9
2019-08-06 15:00:00 33.8 15 Oeste 30 Oeste 0 961.9 -1.1 15
2019-08-06 14:00:00 34.2 8 Sudoeste 26 Sudoeste 0 962.6 -0.9 14
2019-08-06 13:00:00 32.3 12 Oeste 26 Oeste 0 963 -0.5 18
2019-08-06 12:00:00 30.8 8 Sudoeste 16 Sudoeste 0 963 -0.7 21
2019-08-06 11:00:00 27.5 4 Noroeste 11 Sudeste 0 963.5 0.1 32
2019-08-06 10:00:00 24.1 5 Este 10 Nordeste 0 963.5 0.8 42
2019-08-06 09:00:00 22.3 2 Noroeste 8 Noroeste 0 963.7 1.6 49
2019-08-06 08:00:00 19.6 2 Norte 7 Sudeste 0 963.4 0.9 46
2019-08-06 07:00:00 19.6 3 Sudeste 8 Norte 0 962.7 0.2 41
2019-08-06 06:00:00 22.1 3 Sudeste 14 Sur 0 962.1 -0.5 37
2019-08-06 05:00:00 22.6 3 Oeste 9 Sudoeste 0 962.5 0 36
2019-08-06 04:00:00 24.7 4 Sudeste 11 Este 0 962.5 0.3 30
2019-08-06 03:00:00 25.8 3 Sur 19 Oeste 0 962.6 0.6 26
2019-08-06 02:00:00 26.3 5 Oeste 12 Sudoeste 0 962.5 0.8 24
2019-08-06 01:00:00 26.5 4 Noroeste 15 Sudoeste 0 962.2 1 16
2019-08-06 00:00:00 27.9 2 Sur 17 Sudoeste 0 962 1.1 13
2019-08-05 23:00:00 29.3 9 Sudoeste 19 Oeste 0 961.7 1 13
2019-08-05 22:00:00 30.4 5 Sudoeste 15 Noroeste 0 961.2 0.3 14
2019-08-05 21:00:00 33.7 12 Noroeste 26 Noroeste 0 960.9 -0.3 10
2019-08-05 20:00:00 35.2 15 Noroeste 25 Noroeste 0 960.7 -0.9 12
2019-08-05 19:00:00 36.2 15 Noroeste 27 Oeste 0 960.9 -1 8
2019-08-05 18:00:00 36.6 17 Oeste 28 Oeste 0 961.2 -1.1 8
2019-08-05 17:00:00 36.6 13 Oeste 31 Oeste 0 961.6 -1.4 8
2019-08-05 16:00:00 36.2 11 Oeste 27 Oeste 0 961.9 -1.8 13
2019-08-05 15:00:00 35.3 13 Oeste 27 Sudoeste 0 962.3 -1.9 15
2019-08-05 14:00:00 33.9 17 Oeste 26 Oeste 0 963 -1.2 18
2019-08-05 13:00:00 33.2 8 Oeste 18 Oeste 0 963.7 -0.5 18
2019-08-05 12:00:00 30.5 4 Oeste 12 Oeste 0 964.2 -0.1 26
2019-08-05 11:00:00 28 3 Sudoeste 8 Oeste 0 964.2 0.1 33
2019-08-05 10:00:00 24.8 3 Nordeste 8 Norte 0 964.2 0.4 41
2019-08-05 09:00:00 22.6 2 Nordeste 4 Nordeste 0 964.3 0.6 48
2019-08-05 08:00:00 18.4 3 Nordeste 5 Nordeste 0 964.1 0.5 54
2019-08-05 07:00:00 18.5 2 Nordeste 5 Norte 0 963.8 0.3 49
2019-08-05 06:00:00 20.1 0 Calma 7 Nordeste 0 963.7 0.1 49
2019-08-05 05:00:00 22.4 4 Nordeste 14 Sudoeste 0 963.6 0 43
2019-08-05 04:00:00 24 5 Oeste 14 Oeste 0 963.5 0.1 37
2019-08-05 03:00:00 24.2 3 Sur 12 Sudoeste 0 963.6 0.5 34
2019-08-05 02:00:00 24.2 3 Sudoeste 8 Sudoeste 0 963.6 0.7 32
2019-08-05 01:00:00 25.6 3 Sur 6 Sur 0 963.4 0.8 30
2019-08-05 00:00:00 27 4 Sur 14 Noroeste 0 963.1 0.9 26
2019-08-04 23:00:00 28.2 2 Oeste 8 Oeste 0 962.9 1 25
2019-08-04 22:00:00 29.8 5 Oeste 13 Oeste 0 962.6 0.8 23
2019-08-04 21:00:00 33.5 6 Oeste 21 Sudoeste 0 962.2 0.3 10
2019-08-04 20:00:00 34.5 15 Oeste 24 Oeste 0 961.9 -0.3 10
2019-08-04 19:00:00 35.6 12 Oeste 30 Oeste 0 961.8 -1.1 11
2019-08-04 18:00:00 35.6 10 Oeste 30 Oeste 0 961.9 -1.3 12
2019-08-04 17:00:00 35.5 16 Oeste 32 Oeste 0 962.2 -1.5 12
2019-08-04 16:00:00 35 16 Oeste 30 Noroeste 0 962.9 -1.2 11
2019-08-04 15:00:00 34.1 16 Oeste 29 Sudoeste 0 963.2 -1.1 15
2019-08-04 14:00:00 33 17 Oeste 28 Oeste 0 963.7 -0.8 19
2019-08-04 13:00:00 31.8 9 Noroeste 15 Oeste 0 964.1 -0.3 25
2019-08-04 12:00:00 29.6 8 Noroeste 15 Oeste 0 964.3 0.1 33
2019-08-04 11:00:00 27.1 5 Oeste 12 Noroeste 0 964.5 0.7 40
2019-08-04 10:00:00 24.8 4 Noroeste 9 Noroeste 0 964.4 0.9 46
2019-08-04 09:00:00 23 4 Nordeste 6 Norte 0 964.2 1.2 51
2019-08-04 08:00:00 19.5 3 Noroeste 4 Oeste 0 963.8 1.1 43
2019-08-04 07:00:00 19.4 0 Calma 8 Noroeste 0 963.5 1 41
2019-08-04 06:00:00 22 3 Norte 10 Sudoeste 0 963 0.5 45
2019-08-04 05:00:00 23.8 12 Oeste 23 Oeste 0 962.7 0.3 45
2019-08-04 04:00:00 24.9 7 Sudoeste 12 Oeste 0 962.5 0.4 28
2019-08-04 03:00:00 26.7 9 Oeste 19 Sudoeste 0 962.5 0.5 22
2019-08-04 02:00:00 26.2 4 Sur 9 Sudoeste 0 962.4 0.7 17
2019-08-04 01:00:00 27 4 Nordeste 12 Sudoeste 0 962.1 0.9 14
2019-08-04 00:00:00 29.2 8 Oeste 18 Sudoeste 0 962 1.4 12
2019-08-03 23:00:00 29.9 10 Sudoeste 19 Oeste 0 961.7 1.2 13
2019-08-03 22:00:00 30.5 10 Sudoeste 22 Oeste 0 961.2 0.7 17
2019-08-03 21:00:00 33.3 14 Oeste 28 Noroeste 0 960.6 -0.3 14
2019-08-03 20:00:00 34.8 16 Oeste 35 Noroeste 0 960.5 -0.8 13
2019-08-03 19:00:00 35.9 19 Noroeste 30 Noroeste 0 960.5 -1.4 14
2019-08-03 18:00:00 36.6 17 Noroeste 33 Noroeste 0 960.9 -1.3 12
2019-08-03 17:00:00 36.7 16 Noroeste 27 Noroeste 0 961.3 -1.6 13
2019-08-03 16:00:00 36.2 13 Oeste 27 Sudoeste 0 961.9 -1.3 13
2019-08-03 15:00:00 35.5 13 Oeste 33 Oeste 0 962.2 -1.2 13
2019-08-03 14:00:00 34.2 13 Oeste 26 Oeste 0 962.9 -0.6 17
2019-08-03 13:00:00 33.6 9 Oeste 18 Oeste 0 963.2 -0.5 18
2019-08-03 12:00:00 30.7 6 Noroeste 12 Oeste 0 963.4 -0.1 23
2019-08-03 11:00:00 27.9 3 Este 8 Nordeste 0 963.5 0.4 25
2019-08-03 10:00:00 25.1 4 Norte 9 Nordeste 0 963.7 0.9 25
2019-08-03 09:00:00 21.7 0 Calma 8 Sudoeste 0 963.5 1 26
2019-08-03 08:00:00 17.9 3 Noroeste 5 Nordeste 0 963.1 1 33
2019-08-03 07:00:00 18.8 4 Este 7 Sudeste 0 962.8 0.7 33
2019-08-03 06:00:00 19.6 3 Sudoeste 12 Sur 0 962.5 0.4 32
2019-08-03 05:00:00 24.3 9 Sudoeste 15 Sudoeste 0 962.1 -0.1 22
2019-08-03 04:00:00 22 5 Sur 8 Sur 0 962.1 -0.3 24
2019-08-03 03:00:00 21.4 2 Este 7 Oeste 0 962.1 -0.2 25
2019-08-03 02:00:00 21.8 2 Sudeste 6 Sudeste 0 962.2 0 24
2019-08-03 01:00:00 22.8 3 Norte 8 Sudoeste 0 962.4 0.7 19
2019-08-03 00:00:00 24.5 2 Este 8 Sudeste 0 962.3 0.7 15
2019-08-02 23:00:00 27.1 6 Sudeste 8 Sudeste 0 962.2 0.6 12
2019-08-02 22:00:00 29.7 3 Sudoeste 14 Noroeste 0 961.7 0.1 12
2019-08-02 21:00:00 33.2 12 Noroeste 21 Noroeste 0 961.6 -0.4 10
2019-08-02 20:00:00 35.3 14 Oeste 21 Noroeste 0 961.6 -0.8 10
2019-08-02 19:00:00 36.4 8 Oeste 24 Oeste 0 961.6 -1.4 10
2019-08-02 18:00:00 36 14 Oeste 26 Oeste 0 962 -1.2 11
2019-08-02 17:00:00 36 10 Oeste 27 Oeste 0 962.4 -1 9
2019-08-02 16:00:00 35.3 14 Oeste 31 Oeste 0 963 -0.9 11
2019-08-02 15:00:00 35 15 Noroeste 29 Oeste 0 963.2 -1.1 12
2019-08-02 14:00:00 34.2 12 Oeste 28 Sudoeste 0 963.4 -0.8 13
2019-08-02 13:00:00 32.5 8 Noroeste 14 Noroeste 0 963.9 -0.4 19
2019-08-02 12:00:00 29.2 6 Noroeste 12 Noroeste 0 964.3 0 24
2019-08-02 11:00:00 26.6 3 Oeste 9 Oeste 0 964.2 0.6 28
2019-08-02 10:00:00 23.9 3 Norte 9 Norte 0 964.3 1.3 34
2019-08-02 09:00:00 21.1 3 Nordeste 5 Norte 0 964.3 1.6 43
2019-08-02 08:00:00 17.9 3 Este 6 Noroeste 0 963.6 0.7 41
2019-08-02 07:00:00 17.8 2 Sur 6 Nordeste 0 963 0.4 45
2019-08-02 06:00:00 19.8 2 Norte 7 Norte 0 962.7 0 37
2019-08-02 05:00:00 20.9 0 Calma 9 Sudoeste 0 962.9 0.1 33
2019-08-02 04:00:00 23.5 5 Sudoeste 10 Sudoeste 0 962.6 0 27
2019-08-02 03:00:00 24.4 6 Sur 9 Sur 0 962.7 0.4 27
2019-08-02 02:00:00 25.2 5 Sur 10 Oeste 0 962.8 0.7 26
2019-08-02 01:00:00 25.8 4 Oeste 14 Oeste 0 962.6 1.2 24
2019-08-02 00:00:00 27.3 7 Oeste 13 Oeste 0 962.3 1.4 22
2019-08-01 23:00:00 28.3 9 Noroeste 13 Oeste 0 962.1 1.6 21
2019-08-01 22:00:00 29.4 7 Oeste 21 Oeste 0 961.4 0.8 19
2019-08-01 21:00:00 32.2 12 Oeste 22 Oeste 0 960.9 0.1 18
2019-08-01 20:00:00 34.4 9 Oeste 28 Oeste 0 960.5 -0.4 10
2019-08-01 19:00:00 34.4 15 Sudoeste 33 Oeste 0 960.6 -0.7 9
2019-08-01 18:00:00 34.8 15 Oeste 30 Oeste 0 960.8 -1 11
2019-08-01 17:00:00 34.4 16 Oeste 37 Sudoeste 0 960.9 -1.4 13
2019-08-01 16:00:00 33.9 17 Oeste 31 Oeste 0 961.3 -1.1 15
2019-08-01 15:00:00 33.2 15 Oeste 32 Oeste 0 961.8 -0.7 15
2019-08-01 14:00:00 32.3 14 Oeste 30 Oeste 0 962.3 0.1 14
2019-08-01 13:00:00 30.9 14 Oeste 24 Oeste 0 962.4 0.5 19
2019-08-01 12:00:00 29.6 9 Sudoeste 22 Sudoeste 0 962.5 0.9 23
2019-08-01 11:00:00 27.3 9 Oeste 15 Oeste 0 962.2 1 29
2019-08-01 10:00:00 25.8 7 Noroeste 12 Noroeste 0 961.9 1.1 32
2019-08-01 09:00:00 24.2 4 Nordeste 15 Oeste 0 961.6 1.2 33
2019-08-01 08:00:00 23 3 Nordeste 14 Sudoeste 0 961.2 1 34
2019-08-01 07:00:00 23 6 Sudoeste 19 Sudoeste 0 960.8 0.8 34
2019-08-01 06:00:00 22.7 5 Sur 14 Sudoeste 0 960.4 0.4 34
2019-08-01 05:00:00 23.5 6 Sudoeste 10 Sudoeste 0 960.2 0.3 30
2019-08-01 04:00:00 23.7 3 Sudoeste 9 Sudoeste 0 960 0.2 28
2019-08-01 03:00:00 25.3 7 Sur 10 Sur 0 960 0.3 22
2019-08-01 02:00:00 26.1 4 Sur 9 Sudoeste 0 959.9 0.4 20
2019-08-01 01:00:00 27.5 6 Sudoeste 11 Oeste 0 959.8 1 17
2019-08-01 00:00:00 28.7 4 Sudoeste 14 Oeste 0 959.7 1.3 16
2019-07-31 23:00:00 29.2 5 Oeste 11 Oeste 0 959.5 1 16
2019-07-31 22:00:00 30.6 4 Sudoeste 14 Noroeste 0 958.8 0.1 14
2019-07-31 21:00:00 33.6 9 Noroeste 19 Oeste 0 958.4 -0.7 12
2019-07-31 20:00:00 35.5 10 Oeste 21 Noroeste 0 958.5 -1.1 11
2019-07-31 19:00:00 36.5 9 Noroeste 24 Noroeste 0 958.7 -1.5 10
2019-07-31 18:00:00 36.4 13 Noroeste 29 Oeste 0 959.1 -1.5 10
2019-07-31 17:00:00 36 17 Noroeste 32 Noroeste 0 959.6 -1.7 10
2019-07-31 16:00:00 36.2 8 Oeste 27 Oeste 0 960.2 -1.4 10
2019-07-31 15:00:00 35.6 14 Oeste 31 Noroeste 0 960.6 -1.5 11
2019-07-31 14:00:00 34.8 9 Noroeste 21 Oeste 0 961.3 -1 12
2019-07-31 13:00:00 33.5 5 Noroeste 15 Noroeste 0 961.6 -0.7 18
2019-07-31 12:00:00 30 4 Este 10 Norte 0 962.1 0 24
2019-07-31 11:00:00 27.3 3 Oeste 9 Noroeste 0 962.3 0.5 24
2019-07-31 10:00:00 24.4 2 Este 7 Oeste 0 962.3 0.4 23
2019-07-31 09:00:00 21 3 Norte 6 Norte 0 962.1 0.4 29
2019-07-31 08:00:00 16.8 2 Sur 7 Sur 0 961.8 0.3 43
2019-07-31 07:00:00 15.2 0 Calma 6 Sur 0 961.9 0.5 40
2019-07-31 06:00:00 15.8 0 Calma 6 Norte 0 961.7 -0.1 39
2019-07-31 05:00:00 17.7 3 Sur 6 Sur 0 961.5 -0.7 35
2019-07-31 04:00:00 18.9 3 Sudoeste 8 Sudoeste 0 961.4 -0.6 31
2019-07-31 03:00:00 18.8 2 Oeste 6 Sudoeste 0 961.8 -0.2 33
2019-07-31 02:00:00 19.5 3 Sudoeste 5 Sudoeste 0 962.2 0.4 29
2019-07-31 01:00:00 20.5 2 Sudeste 7 Sudeste 0 962 0.7 24
2019-07-31 00:00:00 23.1 3 Sur 6 Sur 0 962 1 21
2019-07-30 23:00:00 25 3 Sudeste 9 Oeste 0 961.8 0.9 20
2019-07-30 22:00:00 27.7 4 Oeste 15 Oeste 0 961.3 0.3 15
2019-07-30 21:00:00 31.3 12 Oeste 20 Oeste 0 961 -0.5 11
2019-07-30 20:00:00 33.6 6 Noroeste 14 Noroeste 0 960.9 -1.1 7
2019-07-30 19:00:00 33.8 5 Norte 18 Noroeste 0 961 -1.7 5
2019-07-30 18:00:00 33.9 9 Norte 21 Noroeste 0 961.5 -1.6 6
2019-07-30 17:00:00 33.3 6 Norte 22 Norte 0 962 -1.8 8
2019-07-30 16:00:00 32.7 11 Oeste 28 Noroeste 0 962.7 -1.6 10
2019-07-30 15:00:00 31 9 Oeste 21 Norte 0 963.1 -1.5 13
2019-07-30 14:00:00 29 9 Oeste 19 Oeste 0 963.8 -1 17
2019-07-30 13:00:00 27.2 6 Oeste 16 Oeste 0 964.3 -0.6 22
2019-07-30 12:00:00 25.8 8 Norte 15 Noroeste 0 964.6 0.3 24
2019-07-30 11:00:00 23.4 6 Noroeste 11 Oeste 0 964.8 1.2 30
2019-07-30 10:00:00 21.1 5 Noroeste 14 Sudoeste 0 964.9 1.8 35
2019-07-30 09:00:00 19.4 5 Oeste 15 Sur 0 964.3 1.3 39
2019-07-30 08:00:00 17.4 7 Sur 17 Sudoeste 0 963.6 0.5 46
2019-07-30 07:00:00 18.1 11 Sur 17 Sur 0 963.1 0.1 41
2019-07-30 06:00:00 16.6 3 Este 6 Este 0 963 0.2 42
2019-07-30 05:00:00 18.5 4 Sudeste 7 Sur 0 963.1 0.5 36
2019-07-30 04:00:00 19.2 3 Sudoeste 5 Sudoeste 0 963 0.7 36
2019-07-30 03:00:00 19.8 2 Oeste 9 Sudeste 0 962.8 0.6 37
2019-07-30 02:00:00 22 3 Sudeste 10 Oeste 0 962.6 0.8 29
2019-07-30 01:00:00 23.9 5 Oeste 16 Oeste 0 962.3 1.2 26
2019-07-30 00:00:00 25.1 7 Oeste 17 Oeste 0 962.2 1.5 26
2019-07-29 23:00:00 26.2 6 Sudoeste 18 Oeste 0 961.8 1.4 24
2019-07-29 22:00:00 27.5 12 Oeste 27 Oeste 0 961.1 0.8 25
2019-07-29 21:00:00 29.8 16 Oeste 30 Oeste 0 960.7 0.2 23
2019-07-29 20:00:00 31.3 17 Oeste 32 Oeste 0 960.4 -0.3 23
2019-07-29 19:00:00 32 18 Oeste 32 Oeste 0 960.3 -0.8 22
2019-07-29 18:00:00 32.2 15 Oeste 32 Noroeste 0 960.5 -0.9 19
2019-07-29 17:00:00 32.2 15 Oeste 30 Oeste 0 960.7 -1.1 19
2019-07-29 16:00:00 31.5 16 Sudoeste 31 Oeste 0 961.1 -1 17
2019-07-29 15:00:00 30.7 13 Sudoeste 28 Oeste 0 961.4 -0.8 18
2019-07-29 14:00:00 29.5 16 Oeste 26 Oeste 0 961.8 -0.3 19
2019-07-29 13:00:00 28 14 Oeste 25 Oeste 0 962.1 0.3 23
2019-07-29 12:00:00 26.5 10 Oeste 19 Oeste 0 962.2 0.9 24
2019-07-29 11:00:00 24.7 8 Sudoeste 16 Oeste 0 962.1 1.4 30
2019-07-29 10:00:00 22.7 9 Sudoeste 17 Sur 0 961.8 1.5 38
2019-07-29 09:00:00 21.6 7 Oeste 15 Sur 0 961.3 1.3 42
2019-07-29 08:00:00 20.2 6 Sur 10 Sur 0 960.7 1 48
2019-07-29 07:00:00 20.4 7 Sudoeste 14 Oeste 0 960.3 0.8 51
2019-07-29 06:00:00 21.4 5 Oeste 15 Oeste 0 960 0.3 49
2019-07-29 05:00:00 22.4 9 Oeste 13 Oeste 0 959.7 0.1 46
2019-07-29 04:00:00 23.2 5 Sudoeste 10 Sudoeste 0 959.5 -0.1 41
2019-07-29 03:00:00 23.1 3 Sur 9 Sudoeste 0 959.7 0.3 40
2019-07-29 02:00:00 21.6 2 Noroeste 6 Sur 0 959.6 0.1 44
2019-07-29 01:00:00 23.5 2 Este 7 Sudeste 0 959.6 0.7 40
2019-07-29 00:00:00 24.9 2 Sur 7 Norte 0 959.4 0.9 36
2019-07-28 23:00:00 26.4 4 Oeste 9 Oeste 0 959.5 1.4 34
2019-07-28 22:00:00 27.7 6 Oeste 21 Oeste 0 958.9 0.9 30
2019-07-28 21:00:00 30 13 Oeste 23 Oeste 0 958.5 0.3 26
2019-07-28 20:00:00 31.5 11 Oeste 24 Oeste 0 958.1 -0.5 23
2019-07-28 19:00:00 31.5 10 Noroeste 21 Oeste 0 958 -1.2 22
2019-07-28 18:00:00 32.4 6 Oeste 22 Oeste 0 958.2 -1.4 20
2019-07-28 17:00:00 32.2 12 Oeste 24 Oeste 0 958.6 -1.4 22
2019-07-28 16:00:00 31.7 10 Oeste 22 Oeste 0 959.2 -1.3 23
2019-07-28 15:00:00 31 10 Oeste 25 Oeste 0 959.6 -1 26
2019-07-28 14:00:00 30.1 6 Noroeste 20 Oeste 0 960 -0.9 27
2019-07-28 13:00:00 28.1 6 Oeste 18 Oeste 0 960.5 -0.5 32
2019-07-28 12:00:00 27.1 8 Oeste 14 Oeste 0 960.6 -0.2 37
2019-07-28 11:00:00 25.2 5 Oeste 11 Noroeste 0 960.9 0.3 40
2019-07-28 10:00:00 23.5 3 Nordeste 10 Norte 0 961 0.7 46
2019-07-28 09:00:00 20.3 4 Este 13 Nordeste 0 960.8 0.9 57
2019-07-28 08:00:00 18 6 Sudoeste 7 Sudoeste 0 960.6 0.8 64
2019-07-28 07:00:00 16.1 3 Nordeste 6 Norte 0 960.3 0.3 72
2019-07-28 06:00:00 18.2 3 Sur 7 Sur 0 959.9 -0.1 62
2019-07-28 05:00:00 19.4 4 Sudeste 10 Sur 0 959.8 -0.2 58
2019-07-28 04:00:00 19.8 3 Este 14 Sudoeste 0 960 0 58
2019-07-28 03:00:00 20.8 7 Oeste 13 Oeste 0 960 -0.2 54
2019-07-28 02:00:00 21.3 5 Sudoeste 12 Sudoeste 0 960 0.1 62
2019-07-28 01:00:00 22 4 Sudoeste 15 Sudoeste 0 960 0.9 65
2019-07-28 00:00:00 22.3 3 Sudeste 10 Oeste 0 960.2 1.3 62
2019-07-27 23:00:00 23.1 3 Sudoeste 19 Oeste 0 959.9 1.1 58
2019-07-26 12:00:00 24.5 16 Sudoeste 28 Sudoeste 0 963.3 0.6 39
2019-07-26 11:00:00 23.2 14 Oeste 28 Sudoeste 0 963.2 0.7 51
2019-07-26 10:00:00 22.3 16 Sudoeste 31 Oeste 0 962.9 0.7 53
2019-07-26 09:00:00 20.6 10 Sudoeste 26 Sudoeste 0 962.7 0.7 60
2019-07-26 08:00:00 19.9 8 Oeste 19 Oeste 0 962.5 0.4 67
2019-07-26 07:00:00 20.6 6 Sudoeste 27 Oeste 0 962.2 0 67
2019-07-26 06:00:00 22.1 18 Oeste 27 Oeste 0 962 -0.1 64
2019-07-26 05:00:00 23.2 10 Oeste 20 Oeste 0 962.1 0.2 59
2019-07-26 04:00:00 24.2 12 Oeste 24 Oeste 0 962.2 0.5 55
2019-07-26 03:00:00 25.8 14 Oeste 25 Oeste 0 962.1 0.4 48
2019-07-26 02:00:00 26.9 9 Oeste 24 Oeste 0 961.9 0.5 37
2019-07-26 01:00:00 27.5 10 Oeste 18 Oeste 0 961.7 0.6 31
2019-07-26 00:00:00 28.1 6 Sudoeste 18 Sudoeste 0 961.7 0.8 27